sensor_id;sensor_type;location;lat;lon;timestamp;P1;durP1;ratioP1;P2;durP2;ratioP2
41253;SDS011;26987;59.928;30.306;2023-05-10T00:02:13;8.82;;;2.75;;
41253;SDS011;26987;59.928;30.306;2023-05-10T00:04:41;12.13;;;4.03;;
41253;SDS011;26987;59.928;30.306;2023-05-10T00:07:09;12.20;;;3.20;;
41253;SDS011;26987;59.928;30.306;2023-05-10T00:09:37;15.48;;;3.40;;
41253;SDS011;26987;59.928;30.306;2023-05-10T00:12:06;13.10;;;3.85;;
41253;SDS011;26987;59.928;30.306;2023-05-10T00:14:33;9.20;;;3.20;;
41253;SDS011;26987;59.928;30.306;2023-05-10T00:17:03;8.95;;;3.22;;
41253;SDS011;26987;59.928;30.306;2023-05-10T00:19:31;7.68;;;3.17;;
41253;SDS011;26987;59.928;30.306;2023-05-10T00:21:58;13.10;;;3.67;;
41253;SDS011;26987;59.928;30.306;2023-05-10T00:24:26;10.20;;;3.95;;
41253;SDS011;26987;59.928;30.306;2023-05-10T00:26:54;14.82;;;3.05;;
41253;SDS011;26987;59.928;30.306;2023-05-10T00:29:22;9.20;;;3.17;;
41253;SDS011;26987;59.928;30.306;2023-05-10T00:31:50;6.85;;;3.15;;
41253;SDS011;26987;59.928;30.306;2023-05-10T00:34:19;16.25;;;4.03;;
41253;SDS011;26987;59.928;30.306;2023-05-10T00:36:47;8.45;;;3.40;;
41253;SDS011;26987;59.928;30.306;2023-05-10T00:39:15;9.55;;;3.78;;
41253;SDS011;26987;59.928;30.306;2023-05-10T00:41:44;11.48;;;2.85;;
41253;SDS011;26987;59.928;30.306;2023-05-10T00:44:12;7.05;;;3.50;;
41253;SDS011;26987;59.928;30.306;2023-05-10T00:46:40;10.07;;;2.78;;
41253;SDS011;26987;59.928;30.306;2023-05-10T00:49:08;9.63;;;3.33;;
41253;SDS011;26987;59.928;30.306;2023-05-10T00:51:38;15.65;;;3.40;;
41253;SDS011;26987;59.928;30.306;2023-05-10T00:54:06;9.75;;;3.70;;
41253;SDS011;26987;59.928;30.306;2023-05-10T00:56:34;11.77;;;3.40;;
41253;SDS011;26987;59.928;30.306;2023-05-10T00:59:02;7.18;;;3.88;;
41253;SDS011;26987;59.928;30.306;2023-05-10T01:01:30;16.17;;;3.88;;
41253;SDS011;26987;59.928;30.306;2023-05-10T01:03:59;15.32;;;4.03;;
41253;SDS011;26987;59.928;30.306;2023-05-10T01:06:27;11.80;;;4.55;;
41253;SDS011;26987;59.928;30.306;2023-05-10T01:08:56;16.30;;;4.53;;
41253;SDS011;26987;59.928;30.306;2023-05-10T01:11:24;20.02;;;5.47;;
41253;SDS011;26987;59.928;30.306;2023-05-10T01:13:52;16.15;;;4.80;;
41253;SDS011;26987;59.928;30.306;2023-05-10T01:16:24;14.35;;;5.60;;
41253;SDS011;26987;59.928;30.306;2023-05-10T01:18:54;23.77;;;5.88;;
41253;SDS011;26987;59.928;30.306;2023-05-10T01:21:23;17.02;;;5.47;;
41253;SDS011;26987;59.928;30.306;2023-05-10T01:24:17;19.85;;;5.63;;
41253;SDS011;26987;59.928;30.306;2023-05-10T01:33:12;23.65;;;8.13;;
41253;SDS011;26987;59.928;30.306;2023-05-10T01:35:47;24.30;;;7.28;;
41253;SDS011;26987;59.928;30.306;2023-05-10T01:38:22;20.88;;;7.40;;
41253;SDS011;26987;59.928;30.306;2023-05-10T01:41:01;20.85;;;7.05;;
41253;SDS011;26987;59.928;30.306;2023-05-10T01:43:37;23.30;;;7.70;;
41253;SDS011;26987;59.928;30.306;2023-05-10T01:46:10;21.47;;;6.73;;
41253;SDS011;26987;59.928;30.306;2023-05-10T01:48:47;22.98;;;6.32;;
41253;SDS011;26987;59.928;30.306;2023-05-10T01:51:16;21.88;;;6.60;;
41253;SDS011;26987;59.928;30.306;2023-05-10T01:53:49;21.90;;;6.32;;
41253;SDS011;26987;59.928;30.306;2023-05-10T01:56:22;22.80;;;5.32;;
41253;SDS011;26987;59.928;30.306;2023-05-10T01:58:53;18.00;;;5.50;;
41253;SDS011;26987;59.928;30.306;2023-05-10T02:01:23;17.38;;;6.13;;
41253;SDS011;26987;59.928;30.306;2023-05-10T02:03:55;27.20;;;6.22;;
41253;SDS011;26987;59.928;30.306;2023-05-10T02:06:25;20.85;;;6.13;;
41253;SDS011;26987;59.928;30.306;2023-05-10T02:08:54;18.75;;;6.53;;
41253;SDS011;26987;59.928;30.306;2023-05-10T02:11:23;21.10;;;6.47;;
41253;SDS011;26987;59.928;30.306;2023-05-10T02:13:53;14.13;;;5.85;;
41253;SDS011;26987;59.928;30.306;2023-05-10T02:16:27;17.38;;;5.18;;
41253;SDS011;26987;59.928;30.306;2023-05-10T02:18:58;31.88;;;8.43;;
41253;SDS011;26987;59.928;30.306;2023-05-10T02:21:28;26.90;;;7.15;;
41253;SDS011;26987;59.928;30.306;2023-05-10T02:23:58;22.58;;;7.53;;
41253;SDS011;26987;59.928;30.306;2023-05-10T02:26:28;22.75;;;6.75;;
41253;SDS011;26987;59.928;30.306;2023-05-10T02:28:58;24.13;;;7.22;;
41253;SDS011;26987;59.928;30.306;2023-05-10T02:31:29;12.63;;;5.78;;
41253;SDS011;26987;59.928;30.306;2023-05-10T02:33:59;25.48;;;6.95;;
41253;SDS011;26987;59.928;30.306;2023-05-10T02:36:28;29.70;;;7.57;;
41253;SDS011;26987;59.928;30.306;2023-05-10T02:38:57;26.30;;;7.10;;
41253;SDS011;26987;59.928;30.306;2023-05-10T02:41:28;23.30;;;7.13;;
41253;SDS011;26987;59.928;30.306;2023-05-10T02:43:59;27.08;;;8.65;;
41253;SDS011;26987;59.928;30.306;2023-05-10T02:46:29;23.02;;;8.05;;
41253;SDS011;26987;59.928;30.306;2023-05-10T02:48:59;20.02;;;7.30;;
41253;SDS011;26987;59.928;30.306;2023-05-10T02:51:28;19.55;;;7.22;;
41253;SDS011;26987;59.928;30.306;2023-05-10T02:54:00;14.18;;;6.28;;
41253;SDS011;26987;59.928;30.306;2023-05-10T02:56:33;23.17;;;6.60;;
41253;SDS011;26987;59.928;30.306;2023-05-10T02:59:03;19.08;;;6.82;;
41253;SDS011;26987;59.928;30.306;2023-05-10T03:01:31;19.90;;;6.50;;
41253;SDS011;26987;59.928;30.306;2023-05-10T03:04:00;21.67;;;8.55;;
41253;SDS011;26987;59.928;30.306;2023-05-10T03:06:28;23.08;;;7.72;;
41253;SDS011;26987;59.928;30.306;2023-05-10T03:08:56;19.80;;;7.05;;
41253;SDS011;26987;59.928;30.306;2023-05-10T03:11:28;13.98;;;6.85;;
41253;SDS011;26987;59.928;30.306;2023-05-10T03:14:10;22.65;;;7.60;;
41253;SDS011;26987;59.928;30.306;2023-05-10T03:16:52;22.40;;;7.45;;
41253;SDS011;26987;59.928;30.306;2023-05-10T03:19:29;32.95;;;8.55;;
41253;SDS011;26987;59.928;30.306;2023-05-10T03:22:03;21.95;;;8.35;;
41253;SDS011;26987;59.928;30.306;2023-05-10T03:24:36;22.70;;;8.52;;
41253;SDS011;26987;59.928;30.306;2023-05-10T03:27:09;23.30;;;8.27;;
41253;SDS011;26987;59.928;30.306;2023-05-10T03:29:38;16.85;;;8.48;;
41253;SDS011;26987;59.928;30.306;2023-05-10T03:32:07;24.63;;;8.23;;
41253;SDS011;26987;59.928;30.306;2023-05-10T03:34:36;24.33;;;8.85;;
41253;SDS011;26987;59.928;30.306;2023-05-10T03:37:09;18.92;;;8.40;;
41253;SDS011;26987;59.928;30.306;2023-05-10T03:39:36;24.65;;;8.93;;
41253;SDS011;26987;59.928;30.306;2023-05-10T03:42:07;20.88;;;8.45;;
41253;SDS011;26987;59.928;30.306;2023-05-10T03:44:38;21.48;;;8.30;;
41253;SDS011;26987;59.928;30.306;2023-05-10T03:47:06;19.15;;;7.95;;
41253;SDS011;26987;59.928;30.306;2023-05-10T03:49:34;17.63;;;7.50;;
41253;SDS011;26987;59.928;30.306;2023-05-10T03:52:03;15.23;;;5.93;;
41253;SDS011;26987;59.928;30.306;2023-05-10T03:54:32;14.27;;;6.10;;
41253;SDS011;26987;59.928;30.306;2023-05-10T03:57:00;11.98;;;5.50;;
41253;SDS011;26987;59.928;30.306;2023-05-10T03:59:29;12.80;;;5.68;;
41253;SDS011;26987;59.928;30.306;2023-05-10T04:01:57;16.77;;;5.63;;
41253;SDS011;26987;59.928;30.306;2023-05-10T04:04:25;14.70;;;6.28;;
41253;SDS011;26987;59.928;30.306;2023-05-10T04:06:55;17.08;;;5.15;;
41253;SDS011;26987;59.928;30.306;2023-05-10T04:09:23;24.48;;;5.18;;
41253;SDS011;26987;59.928;30.306;2023-05-10T04:11:51;24.85;;;6.95;;
41253;SDS011;26987;59.928;30.306;2023-05-10T04:14:19;15.60;;;5.80;;
41253;SDS011;26987;59.928;30.306;2023-05-10T04:16:46;10.48;;;5.35;;
41253;SDS011;26987;59.928;30.306;2023-05-10T04:19:14;16.95;;;5.65;;
41253;SDS011;26987;59.928;30.306;2023-05-10T04:21:42;13.75;;;5.43;;
41253;SDS011;26987;59.928;30.306;2023-05-10T04:24:12;11.18;;;5.53;;
41253;SDS011;26987;59.928;30.306;2023-05-10T04:26:39;11.93;;;5.65;;
41253;SDS011;26987;59.928;30.306;2023-05-10T04:29:07;11.13;;;5.25;;
41253;SDS011;26987;59.928;30.306;2023-05-10T04:31:36;11.93;;;6.10;;
41253;SDS011;26987;59.928;30.306;2023-05-10T04:34:04;13.25;;;6.40;;
41253;SDS011;26987;59.928;30.306;2023-05-10T04:36:32;13.02;;;5.70;;
41253;SDS011;26987;59.928;30.306;2023-05-10T04:39:01;13.85;;;6.32;;
41253;SDS011;26987;59.928;30.306;2023-05-10T04:41:31;14.77;;;6.25;;
41253;SDS011;26987;59.928;30.306;2023-05-10T04:43:59;13.88;;;6.90;;
41253;SDS011;26987;59.928;30.306;2023-05-10T04:46:27;14.52;;;6.13;;
41253;SDS011;26987;59.928;30.306;2023-05-10T04:48:54;12.38;;;5.88;;
41253;SDS011;26987;59.928;30.306;2023-05-10T04:51:22;11.75;;;6.00;;
41253;SDS011;26987;59.928;30.306;2023-05-10T04:53:50;12.35;;;5.45;;
41253;SDS011;26987;59.928;30.306;2023-05-10T04:56:18;11.63;;;6.15;;
41253;SDS011;26987;59.928;30.306;2023-05-10T04:58:47;24.75;;;6.38;;
41253;SDS011;26987;59.928;30.306;2023-05-10T05:01:15;12.77;;;5.88;;
41253;SDS011;26987;59.928;30.306;2023-05-10T05:03:43;14.98;;;6.55;;
41253;SDS011;26987;59.928;30.306;2023-05-10T05:06:11;14.05;;;5.53;;
41253;SDS011;26987;59.928;30.306;2023-05-10T05:08:39;12.73;;;5.53;;
41253;SDS011;26987;59.928;30.306;2023-05-10T05:11:06;9.30;;;4.53;;
41253;SDS011;26987;59.928;30.306;2023-05-10T05:13:34;14.80;;;4.60;;
41253;SDS011;26987;59.928;30.306;2023-05-10T05:16:04;11.50;;;4.75;;
41253;SDS011;26987;59.928;30.306;2023-05-10T05:18:32;9.68;;;3.95;;
41253;SDS011;26987;59.928;30.306;2023-05-10T05:21:00;10.63;;;4.22;;
41253;SDS011;26987;59.928;30.306;2023-05-10T05:23:28;12.40;;;4.15;;
41253;SDS011;26987;59.928;30.306;2023-05-10T05:25:56;17.27;;;4.60;;
41253;SDS011;26987;59.928;30.306;2023-05-10T05:28:24;14.63;;;4.68;;
41253;SDS011;26987;59.928;30.306;2023-05-10T05:30:52;14.85;;;4.70;;
41253;SDS011;26987;59.928;30.306;2023-05-10T05:33:21;12.85;;;4.45;;
41253;SDS011;26987;59.928;30.306;2023-05-10T05:35:49;8.80;;;4.43;;
41253;SDS011;26987;59.928;30.306;2023-05-10T05:38:17;14.57;;;4.78;;
41253;SDS011;26987;59.928;30.306;2023-05-10T05:40:44;20.02;;;4.80;;
41253;SDS011;26987;59.928;30.306;2023-05-10T05:43:12;10.85;;;5.05;;
41253;SDS011;26987;59.928;30.306;2023-05-10T05:45:40;13.70;;;3.85;;
41253;SDS011;26987;59.928;30.306;2023-05-10T05:48:08;9.75;;;4.28;;
41253;SDS011;26987;59.928;30.306;2023-05-10T05:50:37;9.85;;;3.75;;
41253;SDS011;26987;59.928;30.306;2023-05-10T05:53:05;13.75;;;3.90;;
41253;SDS011;26987;59.928;30.306;2023-05-10T05:55:33;14.25;;;4.72;;
41253;SDS011;26987;59.928;30.306;2023-05-10T05:58:04;10.13;;;3.90;;
41253;SDS011;26987;59.928;30.306;2023-05-10T06:00:32;9.43;;;3.92;;
41253;SDS011;26987;59.928;30.306;2023-05-10T06:03:00;10.27;;;3.65;;
41253;SDS011;26987;59.928;30.306;2023-05-10T06:05:28;12.05;;;4.10;;
41253;SDS011;26987;59.928;30.306;2023-05-10T06:07:58;13.40;;;3.97;;
41253;SDS011;26987;59.928;30.306;2023-05-10T06:10:27;7.75;;;3.50;;
41253;SDS011;26987;59.928;30.306;2023-05-10T06:12:55;7.45;;;3.80;;
41253;SDS011;26987;59.928;30.306;2023-05-10T06:15:22;9.50;;;3.78;;
41253;SDS011;26987;59.928;30.306;2023-05-10T06:17:50;13.82;;;3.80;;
41253;SDS011;26987;59.928;30.306;2023-05-10T06:20:18;8.57;;;3.60;;
41253;SDS011;26987;59.928;30.306;2023-05-10T06:22:46;13.43;;;3.72;;
41253;SDS011;26987;59.928;30.306;2023-05-10T06:25:16;7.60;;;3.70;;
41253;SDS011;26987;59.928;30.306;2023-05-10T06:27:44;6.60;;;3.55;;
41253;SDS011;26987;59.928;30.306;2023-05-10T06:30:12;13.30;;;3.92;;
41253;SDS011;26987;59.928;30.306;2023-05-10T06:32:41;11.43;;;3.75;;
41253;SDS011;26987;59.928;30.306;2023-05-10T06:35:11;16.85;;;4.00;;
41253;SDS011;26987;59.928;30.306;2023-05-10T06:37:38;11.27;;;4.35;;
41253;SDS011;26987;59.928;30.306;2023-05-10T06:40:07;12.85;;;4.00;;
41253;SDS011;26987;59.928;30.306;2023-05-10T06:42:36;22.20;;;3.50;;
41253;SDS011;26987;59.928;30.306;2023-05-10T06:45:05;10.10;;;3.58;;
41253;SDS011;26987;59.928;30.306;2023-05-10T06:47:34;9.60;;;3.78;;
41253;SDS011;26987;59.928;30.306;2023-05-10T06:50:02;8.73;;;3.80;;
41253;SDS011;26987;59.928;30.306;2023-05-10T06:52:30;10.27;;;3.20;;
41253;SDS011;26987;59.928;30.306;2023-05-10T06:54:58;6.22;;;2.90;;
41253;SDS011;26987;59.928;30.306;2023-05-10T06:57:26;11.85;;;3.25;;
41253;SDS011;26987;59.928;30.306;2023-05-10T06:59:55;6.15;;;2.72;;
41253;SDS011;26987;59.928;30.306;2023-05-10T07:02:23;10.07;;;2.60;;
41253;SDS011;26987;59.928;30.306;2023-05-10T07:04:51;9.40;;;3.50;;
41253;SDS011;26987;59.928;30.306;2023-05-10T07:07:19;11.15;;;3.83;;
41253;SDS011;26987;59.928;30.306;2023-05-10T07:09:47;12.07;;;3.22;;
41253;SDS011;26987;59.928;30.306;2023-05-10T07:12:15;7.55;;;2.60;;
41253;SDS011;26987;59.928;30.306;2023-05-10T07:14:43;9.38;;;3.28;;
41253;SDS011;26987;59.928;30.306;2023-05-10T07:17:12;12.10;;;2.42;;
41253;SDS011;26987;59.928;30.306;2023-05-10T07:19:41;14.43;;;2.83;;
41253;SDS011;26987;59.928;30.306;2023-05-10T07:22:09;11.57;;;2.83;;
41253;SDS011;26987;59.928;30.306;2023-05-10T07:24:37;8.30;;;2.10;;
41253;SDS011;26987;59.928;30.306;2023-05-10T07:27:05;10.68;;;2.65;;
41253;SDS011;26987;59.928;30.306;2023-05-10T07:29:33;9.27;;;2.90;;
41253;SDS011;26987;59.928;30.306;2023-05-10T07:32:01;6.30;;;2.50;;
41253;SDS011;26987;59.928;30.306;2023-05-10T07:34:30;9.27;;;2.83;;
41253;SDS011;26987;59.928;30.306;2023-05-10T07:36:58;5.38;;;1.92;;
41253;SDS011;26987;59.928;30.306;2023-05-10T07:39:26;10.05;;;2.17;;
41253;SDS011;26987;59.928;30.306;2023-05-10T07:41:54;5.40;;;2.20;;
41253;SDS011;26987;59.928;30.306;2023-05-10T07:44:22;7.22;;;2.72;;
41253;SDS011;26987;59.928;30.306;2023-05-10T07:46:50;10.48;;;2.15;;
41253;SDS011;26987;59.928;30.306;2023-05-10T07:49:18;5.38;;;2.08;;
41253;SDS011;26987;59.928;30.306;2023-05-10T07:51:47;10.82;;;3.15;;
41253;SDS011;26987;59.928;30.306;2023-05-10T07:54:15;10.25;;;2.97;;
41253;SDS011;26987;59.928;30.306;2023-05-10T07:56:43;9.18;;;2.22;;
41253;SDS011;26987;59.928;30.306;2023-05-10T07:59:14;11.57;;;2.28;;
41253;SDS011;26987;59.928;30.306;2023-05-10T08:01:43;14.18;;;1.98;;
41253;SDS011;26987;59.928;30.306;2023-05-10T08:04:11;9.85;;;2.53;;
41253;SDS011;26987;59.928;30.306;2023-05-10T08:06:39;7.65;;;1.90;;
41253;SDS011;26987;59.928;30.306;2023-05-10T08:09:11;4.93;;;1.70;;
41253;SDS011;26987;59.928;30.306;2023-05-10T08:11:39;6.07;;;1.40;;
41253;SDS011;26987;59.928;30.306;2023-05-10T08:14:07;5.68;;;1.63;;
41253;SDS011;26987;59.928;30.306;2023-05-10T08:16:35;7.72;;;2.85;;
41253;SDS011;26987;59.928;30.306;2023-05-10T08:19:03;11.07;;;2.85;;
41253;SDS011;26987;59.928;30.306;2023-05-10T08:21:30;8.23;;;2.10;;
41253;SDS011;26987;59.928;30.306;2023-05-10T08:23:58;8.77;;;1.73;;
41253;SDS011;26987;59.928;30.306;2023-05-10T08:26:28;12.30;;;2.25;;
41253;SDS011;26987;59.928;30.306;2023-05-10T08:28:55;13.50;;;3.33;;
41253;SDS011;26987;59.928;30.306;2023-05-10T08:31:23;10.40;;;2.80;;
41253;SDS011;26987;59.928;30.306;2023-05-10T08:33:51;7.18;;;1.90;;
41253;SDS011;26987;59.928;30.306;2023-05-10T08:36:19;4.65;;;1.58;;
41253;SDS011;26987;59.928;30.306;2023-05-10T08:38:50;9.52;;;1.85;;
41253;SDS011;26987;59.928;30.306;2023-05-10T08:41:19;12.85;;;1.90;;
41253;SDS011;26987;59.928;30.306;2023-05-10T08:43:49;9.73;;;1.52;;
41253;SDS011;26987;59.928;30.306;2023-05-10T08:46:18;6.10;;;2.47;;
41253;SDS011;26987;59.928;30.306;2023-05-10T08:48:48;8.98;;;2.75;;
41253;SDS011;26987;59.928;30.306;2023-05-10T08:51:18;14.05;;;1.90;;
41253;SDS011;26987;59.928;30.306;2023-05-10T08:53:49;7.15;;;1.42;;
41253;SDS011;26987;59.928;30.306;2023-05-10T08:56:17;5.03;;;1.88;;
41253;SDS011;26987;59.928;30.306;2023-05-10T08:58:46;8.48;;;2.05;;
41253;SDS011;26987;59.928;30.306;2023-05-10T09:01:16;4.85;;;1.60;;
41253;SDS011;26987;59.928;30.306;2023-05-10T09:03:45;4.55;;;1.33;;
41253;SDS011;26987;59.928;30.306;2023-05-10T09:06:13;7.95;;;1.70;;
41253;SDS011;26987;59.928;30.306;2023-05-10T09:08:42;7.93;;;1.90;;
41253;SDS011;26987;59.928;30.306;2023-05-10T09:11:11;4.43;;;1.60;;
41253;SDS011;26987;59.928;30.306;2023-05-10T09:13:40;10.40;;;1.92;;
41253;SDS011;26987;59.928;30.306;2023-05-10T09:16:09;7.20;;;2.75;;
41253;SDS011;26987;59.928;30.306;2023-05-10T09:18:39;6.93;;;1.52;;
41253;SDS011;26987;59.928;30.306;2023-05-10T09:21:07;9.25;;;1.83;;
41253;SDS011;26987;59.928;30.306;2023-05-10T09:23:35;5.40;;;1.88;;
41253;SDS011;26987;59.928;30.306;2023-05-10T09:26:03;5.60;;;1.50;;
41253;SDS011;26987;59.928;30.306;2023-05-10T09:28:32;9.48;;;1.65;;
41253;SDS011;26987;59.928;30.306;2023-05-10T09:31:00;11.35;;;1.95;;
41253;SDS011;26987;59.928;30.306;2023-05-10T09:33:30;5.72;;;2.00;;
41253;SDS011;26987;59.928;30.306;2023-05-10T09:36:13;14.82;;;2.08;;
41253;SDS011;26987;59.928;30.306;2023-05-10T09:38:46;7.90;;;2.00;;
41253;SDS011;26987;59.928;30.306;2023-05-10T09:41:15;2.95;;;1.40;;
41253;SDS011;26987;59.928;30.306;2023-05-10T09:43:44;4.45;;;1.40;;
41253;SDS011;26987;59.928;30.306;2023-05-10T09:46:12;3.08;;;1.55;;
41253;SDS011;26987;59.928;30.306;2023-05-10T09:48:41;5.95;;;1.40;;
41253;SDS011;26987;59.928;30.306;2023-05-10T09:51:24;1.85;;;1.02;;
41253;SDS011;26987;59.928;30.306;2023-05-10T09:54:08;2.60;;;1.10;;
41253;SDS011;26987;59.928;30.306;2023-05-10T09:56:37;9.32;;;1.42;;
41253;SDS011;26987;59.928;30.306;2023-05-10T09:59:06;5.40;;;1.73;;
41253;SDS011;26987;59.928;30.306;2023-05-10T10:01:35;5.38;;;1.38;;
41253;SDS011;26987;59.928;30.306;2023-05-10T10:04:04;4.45;;;1.52;;
41253;SDS011;26987;59.928;30.306;2023-05-10T10:06:37;11.95;;;1.63;;
41253;SDS011;26987;59.928;30.306;2023-05-10T10:09:06;4.22;;;1.33;;
41253;SDS011;26987;59.928;30.306;2023-05-10T10:11:34;5.85;;;1.35;;
41253;SDS011;26987;59.928;30.306;2023-05-10T10:14:03;5.63;;;1.48;;
41253;SDS011;26987;59.928;30.306;2023-05-10T10:16:31;3.25;;;1.40;;
41253;SDS011;26987;59.928;30.306;2023-05-10T10:18:59;6.03;;;1.25;;
41253;SDS011;26987;59.928;30.306;2023-05-10T10:21:28;5.93;;;1.85;;
41253;SDS011;26987;59.928;30.306;2023-05-10T10:23:58;3.65;;;1.77;;
41253;SDS011;26987;59.928;30.306;2023-05-10T10:26:26;7.70;;;1.15;;
41253;SDS011;26987;59.928;30.306;2023-05-10T10:28:56;4.95;;;1.40;;
41253;SDS011;26987;59.928;30.306;2023-05-10T10:31:39;5.10;;;1.35;;
41253;SDS011;26987;59.928;30.306;2023-05-10T10:34:17;3.92;;;1.60;;
41253;SDS011;26987;59.928;30.306;2023-05-10T10:36:52;5.25;;;1.70;;
41253;SDS011;26987;59.928;30.306;2023-05-10T10:39:23;4.10;;;1.63;;
41253;SDS011;26987;59.928;30.306;2023-05-10T10:41:52;2.67;;;1.50;;
41253;SDS011;26987;59.928;30.306;2023-05-10T10:47:21;4.43;;;1.98;;
41253;SDS011;26987;59.928;30.306;2023-05-10T10:49:51;4.07;;;1.33;;
41253;SDS011;26987;59.928;30.306;2023-05-10T10:52:30;4.75;;;1.20;;
41253;SDS011;26987;59.928;30.306;2023-05-10T10:55:02;6.68;;;1.65;;
41253;SDS011;26987;59.928;30.306;2023-05-10T10:57:32;5.50;;;1.23;;
41253;SDS011;26987;59.928;30.306;2023-05-10T11:00:25;6.85;;;1.25;;
41253;SDS011;26987;59.928;30.306;2023-05-10T11:02:58;4.53;;;1.48;;
41253;SDS011;26987;59.928;30.306;2023-05-10T11:08:19;5.18;;;1.83;;
41253;SDS011;26987;59.928;30.306;2023-05-10T11:11:02;3.85;;;1.38;;
41253;SDS011;26987;59.928;30.306;2023-05-10T11:13:34;5.63;;;1.20;;
41253;SDS011;26987;59.928;30.306;2023-05-10T11:16:11;6.22;;;1.40;;
41253;SDS011;26987;59.928;30.306;2023-05-10T11:18:52;10.30;;;1.80;;
41253;SDS011;26987;59.928;30.306;2023-05-10T11:21:28;7.53;;;1.77;;
41253;SDS011;26987;59.928;30.306;2023-05-10T11:23:57;4.25;;;1.23;;
41253;SDS011;26987;59.928;30.306;2023-05-10T11:26:31;2.55;;;1.20;;
41253;SDS011;26987;59.928;30.306;2023-05-10T11:29:02;4.07;;;1.73;;
41253;SDS011;26987;59.928;30.306;2023-05-10T11:31:30;4.43;;;1.25;;
41253;SDS011;26987;59.928;30.306;2023-05-10T11:33:59;3.45;;;1.40;;
41253;SDS011;26987;59.928;30.306;2023-05-10T11:36:28;10.93;;;1.67;;
41253;SDS011;26987;59.928;30.306;2023-05-10T11:38:59;13.05;;;3.28;;
41253;SDS011;26987;59.928;30.306;2023-05-10T11:41:28;10.77;;;2.28;;
41253;SDS011;26987;59.928;30.306;2023-05-10T11:43:58;5.70;;;1.38;;
41253;SDS011;26987;59.928;30.306;2023-05-10T11:46:26;8.98;;;1.67;;
41253;SDS011;26987;59.928;30.306;2023-05-10T11:48:56;4.05;;;1.17;;
41253;SDS011;26987;59.928;30.306;2023-05-10T11:51:26;6.22;;;1.95;;
41253;SDS011;26987;59.928;30.306;2023-05-10T11:53:55;6.38;;;1.38;;
41253;SDS011;26987;59.928;30.306;2023-05-10T11:56:24;7.80;;;1.80;;
41253;SDS011;26987;59.928;30.306;2023-05-10T11:58:53;11.70;;;1.20;;
41253;SDS011;26987;59.928;30.306;2023-05-10T12:01:24;10.70;;;2.22;;
41253;SDS011;26987;59.928;30.306;2023-05-10T12:03:54;6.00;;;1.40;;
41253;SDS011;26987;59.928;30.306;2023-05-10T12:06:26;12.50;;;1.95;;
41253;SDS011;26987;59.928;30.306;2023-05-10T12:08:54;11.75;;;1.83;;
41253;SDS011;26987;59.928;30.306;2023-05-10T12:11:24;2.85;;;1.23;;
41253;SDS011;26987;59.928;30.306;2023-05-10T12:13:53;3.65;;;1.00;;
41253;SDS011;26987;59.928;30.306;2023-05-10T12:16:22;2.83;;;1.45;;
41253;SDS011;26987;59.928;30.306;2023-05-10T12:18:55;3.60;;;1.40;;
41253;SDS011;26987;59.928;30.306;2023-05-10T12:21:24;3.03;;;1.08;;
41253;SDS011;26987;59.928;30.306;2023-05-10T12:23:54;5.30;;;1.15;;
41253;SDS011;26987;59.928;30.306;2023-05-10T12:26:27;3.60;;;1.60;;
41253;SDS011;26987;59.928;30.306;2023-05-10T12:29:11;5.22;;;1.60;;
41253;SDS011;26987;59.928;30.306;2023-05-10T12:31:51;4.13;;;1.15;;
41253;SDS011;26987;59.928;30.306;2023-05-10T12:34:23;1.88;;;1.10;;
41253;SDS011;26987;59.928;30.306;2023-05-10T12:36:54;10.05;;;1.20;;
41253;SDS011;26987;59.928;30.306;2023-05-10T12:39:22;5.07;;;1.77;;
41253;SDS011;26987;59.928;30.306;2023-05-10T12:41:50;4.55;;;1.60;;
41253;SDS011;26987;59.928;30.306;2023-05-10T12:44:18;5.82;;;1.73;;
41253;SDS011;26987;59.928;30.306;2023-05-10T12:46:46;2.33;;;1.13;;
41253;SDS011;26987;59.928;30.306;2023-05-10T12:49:15;7.90;;;1.02;;
41253;SDS011;26987;59.928;30.306;2023-05-10T12:51:44;7.15;;;1.13;;
41253;SDS011;26987;59.928;30.306;2023-05-10T12:54:12;4.70;;;1.40;;
41253;SDS011;26987;59.928;30.306;2023-05-10T12:56:40;8.75;;;1.73;;
41253;SDS011;26987;59.928;30.306;2023-05-10T12:59:08;5.90;;;2.10;;
41253;SDS011;26987;59.928;30.306;2023-05-10T13:01:36;4.40;;;1.40;;
41253;SDS011;26987;59.928;30.306;2023-05-10T13:04:04;9.20;;;2.55;;
41253;SDS011;26987;59.928;30.306;2023-05-10T13:06:33;5.85;;;2.45;;
41253;SDS011;26987;59.928;30.306;2023-05-10T13:09:01;9.05;;;1.45;;
41253;SDS011;26987;59.928;30.306;2023-05-10T13:11:29;3.20;;;1.58;;
41253;SDS011;26987;59.928;30.306;2023-05-10T13:13:57;10.48;;;2.22;;
41253;SDS011;26987;59.928;30.306;2023-05-10T13:16:26;6.03;;;1.58;;
41253;SDS011;26987;59.928;30.306;2023-05-10T13:18:53;4.55;;;1.55;;
41253;SDS011;26987;59.928;30.306;2023-05-10T13:21:21;9.55;;;2.38;;
41253;SDS011;26987;59.928;30.306;2023-05-10T13:23:52;13.45;;;1.63;;
41253;SDS011;26987;59.928;30.306;2023-05-10T13:26:20;2.63;;;1.42;;
41253;SDS011;26987;59.928;30.306;2023-05-10T13:28:48;11.20;;;1.80;;
41253;SDS011;26987;59.928;30.306;2023-05-10T13:31:17;7.30;;;1.38;;
41253;SDS011;26987;59.928;30.306;2023-05-10T13:33:45;1.80;;;1.13;;
41253;SDS011;26987;59.928;30.306;2023-05-10T13:36:13;5.35;;;1.17;;
41253;SDS011;26987;59.928;30.306;2023-05-10T13:38:40;2.20;;;0.90;;
41253;SDS011;26987;59.928;30.306;2023-05-10T13:41:10;3.80;;;1.42;;
41253;SDS011;26987;59.928;30.306;2023-05-10T13:43:38;2.40;;;1.20;;
41253;SDS011;26987;59.928;30.306;2023-05-10T13:46:05;3.75;;;1.10;;
41253;SDS011;26987;59.928;30.306;2023-05-10T13:48:33;4.30;;;1.20;;
41253;SDS011;26987;59.928;30.306;2023-05-10T13:51:02;5.47;;;1.42;;
41253;SDS011;26987;59.928;30.306;2023-05-10T13:53:30;3.53;;;1.08;;
41253;SDS011;26987;59.928;30.306;2023-05-10T13:55:58;4.85;;;1.20;;
41253;SDS011;26987;59.928;30.306;2023-05-10T13:58:27;2.47;;;1.30;;
41253;SDS011;26987;59.928;30.306;2023-05-10T14:00:55;4.38;;;1.52;;
41253;SDS011;26987;59.928;30.306;2023-05-10T14:03:23;4.30;;;1.35;;
41253;SDS011;26987;59.928;30.306;2023-05-10T14:05:51;4.85;;;1.20;;
41253;SDS011;26987;59.928;30.306;2023-05-10T14:08:19;2.70;;;1.00;;
41253;SDS011;26987;59.928;30.306;2023-05-10T14:10:47;3.67;;;1.23;;
41253;SDS011;26987;59.928;30.306;2023-05-10T14:13:16;7.80;;;1.20;;
41253;SDS011;26987;59.928;30.306;2023-05-10T14:15:45;3.20;;;1.08;;
41253;SDS011;26987;59.928;30.306;2023-05-10T14:18:13;4.00;;;1.33;;
41253;SDS011;26987;59.928;30.306;2023-05-10T14:20:41;10.40;;;1.33;;
41253;SDS011;26987;59.928;30.306;2023-05-10T14:23:09;5.55;;;0.95;;
41253;SDS011;26987;59.928;30.306;2023-05-10T14:25:37;6.82;;;1.35;;
41253;SDS011;26987;59.928;30.306;2023-05-10T14:28:05;8.15;;;1.40;;
41253;SDS011;26987;59.928;30.306;2023-05-10T14:30:33;5.30;;;1.38;;
41253;SDS011;26987;59.928;30.306;2023-05-10T14:33:02;9.48;;;1.75;;
41253;SDS011;26987;59.928;30.306;2023-05-10T14:35:30;5.95;;;1.27;;
41253;SDS011;26987;59.928;30.306;2023-05-10T14:37:58;5.88;;;1.45;;
41253;SDS011;26987;59.928;30.306;2023-05-10T14:40:26;3.60;;;1.40;;
41253;SDS011;26987;59.928;30.306;2023-05-10T14:42:54;8.13;;;1.85;;
41253;SDS011;26987;59.928;30.306;2023-05-10T14:45:22;5.47;;;1.50;;
41253;SDS011;26987;59.928;30.306;2023-05-10T14:47:50;7.05;;;1.58;;
41253;SDS011;26987;59.928;30.306;2023-05-10T14:50:19;5.32;;;1.98;;
41253;SDS011;26987;59.928;30.306;2023-05-10T14:52:47;3.55;;;1.40;;
41253;SDS011;26987;59.928;30.306;2023-05-10T14:55:16;2.10;;;1.05;;